sensor_id;sensor_type;location;lat;lon;timestamp;temperature;humidity
15543;DHT22;7873;52.230;12.856;2023-07-29T00:00:40;23.50;57.90
15543;DHT22;7873;52.230;12.856;2023-07-29T00:03:09;23.50;57.80
15543;DHT22;7873;52.230;12.856;2023-07-29T00:05:36;23.50;57.80
15543;DHT22;7873;52.230;12.856;2023-07-29T00:08:03;23.50;57.70
15543;DHT22;7873;52.230;12.856;2023-07-29T00:10:30;23.50;57.70
15543;DHT22;7873;52.230;12.856;2023-07-29T00:12:57;23.50;57.60
15543;DHT22;7873;52.230;12.856;2023-07-29T00:15:24;23.60;57.60
15543;DHT22;7873;52.230;12.856;2023-07-29T00:17:51;23.60;57.50
15543;DHT22;7873;52.230;12.856;2023-07-29T00:20:19;23.60;57.50
15543;DHT22;7873;52.230;12.856;2023-07-29T00:22:46;23.50;57.40
15543;DHT22;7873;52.230;12.856;2023-07-29T00:25:14;23.60;57.50
15543;DHT22;7873;52.230;12.856;2023-07-29T00:27:41;23.50;57.40
15543;DHT22;7873;52.230;12.856;2023-07-29T00:30:08;23.50;57.50
15543;DHT22;7873;52.230;12.856;2023-07-29T00:32:35;23.50;57.50
15543;DHT22;7873;52.230;12.856;2023-07-29T00:35:02;23.50;57.50
15543;DHT22;7873;52.230;12.856;2023-07-29T00:37:31;23.50;57.60
15543;DHT22;7873;52.230;12.856;2023-07-29T00:39:57;23.50;57.60
15543;DHT22;7873;52.230;12.856;2023-07-29T00:42:24;23.50;57.50
15543;DHT22;7873;52.230;12.856;2023-07-29T00:44:51;23.50;57.50
15543;DHT22;7873;52.230;12.856;2023-07-29T00:47:17;23.50;57.40
15543;DHT22;7873;52.230;12.856;2023-07-29T00:49:46;23.50;57.40
15543;DHT22;7873;52.230;12.856;2023-07-29T00:52:13;23.50;57.30
15543;DHT22;7873;52.230;12.856;2023-07-29T00:54:42;23.50;57.30
15543;DHT22;7873;52.230;12.856;2023-07-29T00:57:08;23.60;57.30
15543;DHT22;7873;52.230;12.856;2023-07-29T00:59:38;23.50;57.20
15543;DHT22;7873;52.230;12.856;2023-07-29T01:02:06;23.50;57.20
15543;DHT22;7873;52.230;12.856;2023-07-29T01:04:33;23.50;57.20
15543;DHT22;7873;52.230;12.856;2023-07-29T01:07:02;23.50;57.10
15543;DHT22;7873;52.230;12.856;2023-07-29T01:09:37;23.50;57.10
15543;DHT22;7873;52.230;12.856;2023-07-29T01:12:14;23.50;57.10
15543;DHT22;7873;52.230;12.856;2023-07-29T01:14:49;23.60;57.10
15543;DHT22;7873;52.230;12.856;2023-07-29T01:17:22;23.50;57.00
15543;DHT22;7873;52.230;12.856;2023-07-29T01:19:55;23.50;57.10
15543;DHT22;7873;52.230;12.856;2023-07-29T01:22:27;23.50;57.10
15543;DHT22;7873;52.230;12.856;2023-07-29T01:24:56;23.50;57.00
15543;DHT22;7873;52.230;12.856;2023-07-29T01:27:23;23.50;57.10
15543;DHT22;7873;52.230;12.856;2023-07-29T01:29:50;23.50;57.10
15543;DHT22;7873;52.230;12.856;2023-07-29T01:32:17;23.50;57.00
15543;DHT22;7873;52.230;12.856;2023-07-29T01:34:48;23.50;57.00
15543;DHT22;7873;52.230;12.856;2023-07-29T01:37:25;23.50;57.00
15543;DHT22;7873;52.230;12.856;2023-07-29T01:39:53;23.50;57.00
15543;DHT22;7873;52.230;12.856;2023-07-29T01:42:23;23.50;57.00
15543;DHT22;7873;52.230;12.856;2023-07-29T01:44:51;23.50;57.00
15543;DHT22;7873;52.230;12.856;2023-07-29T01:47:17;23.50;56.80
15543;DHT22;7873;52.230;12.856;2023-07-29T01:49:44;23.50;56.80
15543;DHT22;7873;52.230;12.856;2023-07-29T01:52:11;23.50;56.80
15543;DHT22;7873;52.230;12.856;2023-07-29T01:54:38;23.50;56.80
15543;DHT22;7873;52.230;12.856;2023-07-29T01:57:06;23.60;56.80
15543;DHT22;7873;52.230;12.856;2023-07-29T01:59:32;23.50;56.80
15543;DHT22;7873;52.230;12.856;2023-07-29T02:01:59;23.60;56.80
15543;DHT22;7873;52.230;12.856;2023-07-29T02:04:26;23.60;56.60
15543;DHT22;7873;52.230;12.856;2023-07-29T02:06:53;23.60;56.60
15543;DHT22;7873;52.230;12.856;2023-07-29T02:09:20;23.60;56.60
15543;DHT22;7873;52.230;12.856;2023-07-29T02:11:47;23.60;57.30
15543;DHT22;7873;52.230;12.856;2023-07-29T02:14:15;23.60;56.50
15543;DHT22;7873;52.230;12.856;2023-07-29T02:16:41;23.60;56.40
15543;DHT22;7873;52.230;12.856;2023-07-29T02:19:08;23.60;56.40
15543;DHT22;7873;52.230;12.856;2023-07-29T02:21:35;23.60;56.40
15543;DHT22;7873;52.230;12.856;2023-07-29T02:24:01;23.60;56.30
15543;DHT22;7873;52.230;12.856;2023-07-29T02:26:28;23.60;56.20
15543;DHT22;7873;52.230;12.856;2023-07-29T02:28:55;23.70;56.20
15543;DHT22;7873;52.230;12.856;2023-07-29T02:31:23;23.70;56.00
15543;DHT22;7873;52.230;12.856;2023-07-29T02:33:51;23.80;55.90
15543;DHT22;7873;52.230;12.856;2023-07-29T02:36:18;23.70;55.90
15543;DHT22;7873;52.230;12.856;2023-07-29T02:38:45;23.70;55.80
15543;DHT22;7873;52.230;12.856;2023-07-29T02:41:12;23.70;56.00
15543;DHT22;7873;52.230;12.856;2023-07-29T02:43:41;23.70;56.10
15543;DHT22;7873;52.230;12.856;2023-07-29T02:46:08;23.70;56.00
15543;DHT22;7873;52.230;12.856;2023-07-29T02:48:36;23.70;55.90
15543;DHT22;7873;52.230;12.856;2023-07-29T02:51:03;23.70;56.00
15543;DHT22;7873;52.230;12.856;2023-07-29T02:53:29;23.70;56.00
15543;DHT22;7873;52.230;12.856;2023-07-29T02:55:56;23.70;55.80
15543;DHT22;7873;52.230;12.856;2023-07-29T02:58:23;23.80;55.90
15543;DHT22;7873;52.230;12.856;2023-07-29T03:00:51;23.80;55.80
15543;DHT22;7873;52.230;12.856;2023-07-29T03:03:18;23.80;55.80
15543;DHT22;7873;52.230;12.856;2023-07-29T03:05:46;23.80;55.70
15543;DHT22;7873;52.230;12.856;2023-07-29T03:08:13;23.80;55.70
15543;DHT22;7873;52.230;12.856;2023-07-29T03:10:39;23.80;55.70
15543;DHT22;7873;52.230;12.856;2023-07-29T03:13:07;23.80;55.70
15543;DHT22;7873;52.230;12.856;2023-07-29T03:15:33;23.80;55.70
15543;DHT22;7873;52.230;12.856;2023-07-29T03:18:00;23.70;55.70
15543;DHT22;7873;52.230;12.856;2023-07-29T03:20:27;23.70;55.70
15543;DHT22;7873;52.230;12.856;2023-07-29T03:22:55;23.70;55.80
15543;DHT22;7873;52.230;12.856;2023-07-29T03:25:21;23.70;55.70
15543;DHT22;7873;52.230;12.856;2023-07-29T03:27:49;23.70;55.80
15543;DHT22;7873;52.230;12.856;2023-07-29T03:30:18;23.70;55.80
15543;DHT22;7873;52.230;12.856;2023-07-29T03:32:46;23.70;55.80
15543;DHT22;7873;52.230;12.856;2023-07-29T03:35:12;23.70;55.70
15543;DHT22;7873;52.230;12.856;2023-07-29T03:37:39;23.70;55.70
15543;DHT22;7873;52.230;12.856;2023-07-29T03:40:08;23.70;55.70
15543;DHT22;7873;52.230;12.856;2023-07-29T03:42:35;23.70;55.60
15543;DHT22;7873;52.230;12.856;2023-07-29T03:45:02;23.70;55.60
15543;DHT22;7873;52.230;12.856;2023-07-29T03:47:29;23.80;55.50
15543;DHT22;7873;52.230;12.856;2023-07-29T03:49:56;23.80;55.40
15543;DHT22;7873;52.230;12.856;2023-07-29T03:52:22;23.80;55.30
15543;DHT22;7873;52.230;12.856;2023-07-29T03:54:49;23.80;55.40
15543;DHT22;7873;52.230;12.856;2023-07-29T03:57:17;23.70;55.50
15543;DHT22;7873;52.230;12.856;2023-07-29T03:59:44;23.70;55.50
15543;DHT22;7873;52.230;12.856;2023-07-29T04:02:11;23.80;55.40
15543;DHT22;7873;52.230;12.856;2023-07-29T04:04:37;23.80;55.40
15543;DHT22;7873;52.230;12.856;2023-07-29T04:07:05;23.70;55.40
15543;DHT22;7873;52.230;12.856;2023-07-29T04:09:32;23.70;55.50
15543;DHT22;7873;52.230;12.856;2023-07-29T04:11:58;23.70;55.40
15543;DHT22;7873;52.230;12.856;2023-07-29T04:14:26;23.70;55.40
15543;DHT22;7873;52.230;12.856;2023-07-29T04:16:53;23.70;55.30
15543;DHT22;7873;52.230;12.856;2023-07-29T04:19:20;23.70;55.40
15543;DHT22;7873;52.230;12.856;2023-07-29T04:21:47;23.70;55.30
15543;DHT22;7873;52.230;12.856;2023-07-29T04:24:16;23.80;55.10
15543;DHT22;7873;52.230;12.856;2023-07-29T04:26:43;23.80;55.20
15543;DHT22;7873;52.230;12.856;2023-07-29T04:29:10;23.80;55.20
15543;DHT22;7873;52.230;12.856;2023-07-29T04:31:38;23.80;55.20
15543;DHT22;7873;52.230;12.856;2023-07-29T04:34:04;23.70;55.30
15543;DHT22;7873;52.230;12.856;2023-07-29T04:36:31;23.80;55.20
15543;DHT22;7873;52.230;12.856;2023-07-29T04:38:58;23.80;55.20
15543;DHT22;7873;52.230;12.856;2023-07-29T04:41:24;23.80;55.20
15543;DHT22;7873;52.230;12.856;2023-07-29T04:43:51;23.80;55.20
15543;DHT22;7873;52.230;12.856;2023-07-29T04:46:18;23.80;55.90
15543;DHT22;7873;52.230;12.856;2023-07-29T04:48:46;23.80;55.20
15543;DHT22;7873;52.230;12.856;2023-07-29T04:51:12;23.80;55.20
15543;DHT22;7873;52.230;12.856;2023-07-29T04:53:39;23.80;55.20
15543;DHT22;7873;52.230;12.856;2023-07-29T04:56:06;23.70;55.20
15543;DHT22;7873;52.230;12.856;2023-07-29T04:58:32;23.70;55.90
15543;DHT22;7873;52.230;12.856;2023-07-29T05:01:00;23.70;55.10
15543;DHT22;7873;52.230;12.856;2023-07-29T05:03:27;23.70;55.20
15543;DHT22;7873;52.230;12.856;2023-07-29T05:05:55;23.70;55.20
15543;DHT22;7873;52.230;12.856;2023-07-29T05:08:22;23.70;55.30
15543;DHT22;7873;52.230;12.856;2023-07-29T05:10:49;23.70;55.30
15543;DHT22;7873;52.230;12.856;2023-07-29T05:13:16;23.70;55.30
15543;DHT22;7873;52.230;12.856;2023-07-29T05:15:43;23.70;55.20
15543;DHT22;7873;52.230;12.856;2023-07-29T05:18:10;23.80;55.20
15543;DHT22;7873;52.230;12.856;2023-07-29T05:20:37;23.80;55.20
15543;DHT22;7873;52.230;12.856;2023-07-29T05:23:06;23.80;55.10
15543;DHT22;7873;52.230;12.856;2023-07-29T05:25:32;23.80;55.20
15543;DHT22;7873;52.230;12.856;2023-07-29T05:28:00;23.70;55.20
15543;DHT22;7873;52.230;12.856;2023-07-29T05:30:26;23.70;55.20
15543;DHT22;7873;52.230;12.856;2023-07-29T05:32:56;23.70;55.30
15543;DHT22;7873;52.230;12.856;2023-07-29T05:35:22;23.70;55.20
15543;DHT22;7873;52.230;12.856;2023-07-29T05:37:49;23.70;55.20
15543;DHT22;7873;52.230;12.856;2023-07-29T05:40:17;23.70;55.40
15543;DHT22;7873;52.230;12.856;2023-07-29T05:42:44;23.70;55.40
15543;DHT22;7873;52.230;12.856;2023-07-29T05:45:11;23.60;55.40
15543;DHT22;7873;52.230;12.856;2023-07-29T05:47:38;23.60;55.50
15543;DHT22;7873;52.230;12.856;2023-07-29T05:50:05;23.60;55.70
15543;DHT22;7873;52.230;12.856;2023-07-29T05:52:32;23.70;55.50
15543;DHT22;7873;52.230;12.856;2023-07-29T05:54:59;23.70;55.40
15543;DHT22;7873;52.230;12.856;2023-07-29T05:57:28;23.80;55.40
15543;DHT22;7873;52.230;12.856;2023-07-29T05:59:54;23.80;55.30
15543;DHT22;7873;52.230;12.856;2023-07-29T06:02:21;23.70;55.30
15543;DHT22;7873;52.230;12.856;2023-07-29T06:04:48;23.70;55.20
15543;DHT22;7873;52.230;12.856;2023-07-29T06:07:14;23.70;55.40
15543;DHT22;7873;52.230;12.856;2023-07-29T06:09:41;23.70;55.50
15543;DHT22;7873;52.230;12.856;2023-07-29T06:12:08;23.60;55.20
15543;DHT22;7873;52.230;12.856;2023-07-29T06:14:36;23.70;55.40
15543;DHT22;7873;52.230;12.856;2023-07-29T06:17:03;23.60;55.70
15543;DHT22;7873;52.230;12.856;2023-07-29T06:19:32;23.70;55.60
15543;DHT22;7873;52.230;12.856;2023-07-29T06:21:58;24.00;56.30
15543;DHT22;7873;52.230;12.856;2023-07-29T06:24:26;24.20;56.40
15543;DHT22;7873;52.230;12.856;2023-07-29T06:26:53;24.30;56.30
15543;DHT22;7873;52.230;12.856;2023-07-29T06:29:19;24.40;56.20
15543;DHT22;7873;52.230;12.856;2023-07-29T06:31:47;24.40;56.40
15543;DHT22;7873;52.230;12.856;2023-07-29T06:34:16;24.40;56.60
15543;DHT22;7873;52.230;12.856;2023-07-29T06:36:43;24.50;56.60
15543;DHT22;7873;52.230;12.856;2023-07-29T06:39:10;24.50;56.90
15543;DHT22;7873;52.230;12.856;2023-07-29T06:41:37;24.50;57.00
15543;DHT22;7873;52.230;12.856;2023-07-29T06:44:04;24.50;58.10
15543;DHT22;7873;52.230;12.856;2023-07-29T06:46:30;24.60;57.70
15543;DHT22;7873;52.230;12.856;2023-07-29T06:48:59;24.60;57.70
15543;DHT22;7873;52.230;12.856;2023-07-29T06:51:25;24.50;58.30
15543;DHT22;7873;52.230;12.856;2023-07-29T06:53:54;24.60;58.30
15543;DHT22;7873;52.230;12.856;2023-07-29T06:56:21;24.60;58.30
15543;DHT22;7873;52.230;12.856;2023-07-29T06:58:48;24.60;58.30
15543;DHT22;7873;52.230;12.856;2023-07-29T07:01:14;24.60;58.50
15543;DHT22;7873;52.230;12.856;2023-07-29T07:03:41;24.60;59.10
15543;DHT22;7873;52.230;12.856;2023-07-29T07:06:09;24.40;59.50
15543;DHT22;7873;52.230;12.856;2023-07-29T07:08:36;24.40;59.60
15543;DHT22;7873;52.230;12.856;2023-07-29T07:11:02;24.40;59.90
15543;DHT22;7873;52.230;12.856;2023-07-29T07:13:29;24.40;59.60
15543;DHT22;7873;52.230;12.856;2023-07-29T07:15:56;24.40;59.50
15543;DHT22;7873;52.230;12.856;2023-07-29T07:18:23;24.40;59.20
15543;DHT22;7873;52.230;12.856;2023-07-29T07:20:49;24.40;59.60
15543;DHT22;7873;52.230;12.856;2023-07-29T07:23:18;24.50;59.40
15543;DHT22;7873;52.230;12.856;2023-07-29T07:25:45;24.40;59.80
15543;DHT22;7873;52.230;12.856;2023-07-29T07:28:11;24.40;58.90
15543;DHT22;7873;52.230;12.856;2023-07-29T07:30:39;24.40;58.60
15543;DHT22;7873;52.230;12.856;2023-07-29T07:33:06;24.50;59.50
15543;DHT22;7873;52.230;12.856;2023-07-29T07:35:33;24.30;61.40
15543;DHT22;7873;52.230;12.856;2023-07-29T07:37:59;24.30;62.50
15543;DHT22;7873;52.230;12.856;2023-07-29T07:40:30;24.30;62.30
15543;DHT22;7873;52.230;12.856;2023-07-29T07:42:57;24.30;63.40
15543;DHT22;7873;52.230;12.856;2023-07-29T07:45:24;24.30;64.50
15543;DHT22;7873;52.230;12.856;2023-07-29T07:47:51;24.20;64.80
15543;DHT22;7873;52.230;12.856;2023-07-29T07:50:18;24.20;64.20
15543;DHT22;7873;52.230;12.856;2023-07-29T07:52:44;24.20;64.70
15543;DHT22;7873;52.230;12.856;2023-07-29T07:55:11;24.10;65.60
15543;DHT22;7873;52.230;12.856;2023-07-29T07:57:39;24.10;64.60
15543;DHT22;7873;52.230;12.856;2023-07-29T08:00:06;24.20;65.80
15543;DHT22;7873;52.230;12.856;2023-07-29T08:02:34;24.20;66.00
15543;DHT22;7873;52.230;12.856;2023-07-29T08:05:01;24.10;64.80
15543;DHT22;7873;52.230;12.856;2023-07-29T08:07:28;24.20;65.30
15543;DHT22;7873;52.230;12.856;2023-07-29T08:09:54;24.20;65.10
15543;DHT22;7873;52.230;12.856;2023-07-29T08:12:21;24.20;65.10
15543;DHT22;7873;52.230;12.856;2023-07-29T08:14:49;24.30;65.00
15543;DHT22;7873;52.230;12.856;2023-07-29T08:17:16;24.40;64.30
15543;DHT22;7873;52.230;12.856;2023-07-29T08:19:43;24.40;64.20
15543;DHT22;7873;52.230;12.856;2023-07-29T08:22:09;24.40;64.30
15543;DHT22;7873;52.230;12.856;2023-07-29T08:24:36;24.20;65.20
15543;DHT22;7873;52.230;12.856;2023-07-29T08:27:03;24.20;65.00
15543;DHT22;7873;52.230;12.856;2023-07-29T08:29:30;24.30;64.60
15543;DHT22;7873;52.230;12.856;2023-07-29T08:31:58;24.40;64.50
15543;DHT22;7873;52.230;12.856;2023-07-29T08:34:24;24.40;64.10
15543;DHT22;7873;52.230;12.856;2023-07-29T08:36:51;24.40;63.70
15543;DHT22;7873;52.230;12.856;2023-07-29T08:39:18;24.40;64.40
15543;DHT22;7873;52.230;12.856;2023-07-29T08:41:45;24.50;63.30
15543;DHT22;7873;52.230;12.856;2023-07-29T08:44:18;24.60;63.20
15543;DHT22;7873;52.230;12.856;2023-07-29T08:46:48;24.40;63.70
15543;DHT22;7873;52.230;12.856;2023-07-29T08:49:17;24.40;63.60
15543;DHT22;7873;52.230;12.856;2023-07-29T08:51:45;24.40;64.30
15543;DHT22;7873;52.230;12.856;2023-07-29T08:54:13;24.40;65.00
15543;DHT22;7873;52.230;12.856;2023-07-29T08:56:41;24.50;63.50
15543;DHT22;7873;52.230;12.856;2023-07-29T08:59:08;24.60;63.70
15543;DHT22;7873;52.230;12.856;2023-07-29T09:01:36;24.40;64.10
15543;DHT22;7873;52.230;12.856;2023-07-29T09:04:04;24.40;64.20
15543;DHT22;7873;52.230;12.856;2023-07-29T09:06:32;24.50;63.80
15543;DHT22;7873;52.230;12.856;2023-07-29T09:08:59;24.70;63.40
15543;DHT22;7873;52.230;12.856;2023-07-29T09:11:27;24.60;63.70
15543;DHT22;7873;52.230;12.856;2023-07-29T09:13:54;24.70;63.60
15543;DHT22;7873;52.230;12.856;2023-07-29T09:16:21;24.70;63.80
15543;DHT22;7873;52.230;12.856;2023-07-29T09:18:49;24.70;63.70
15543;DHT22;7873;52.230;12.856;2023-07-29T09:21:17;24.70;64.10
15543;DHT22;7873;52.230;12.856;2023-07-29T09:23:45;24.60;64.10
15543;DHT22;7873;52.230;12.856;2023-07-29T09:26:11;24.60;63.60
15543;DHT22;7873;52.230;12.856;2023-07-29T09:28:38;24.60;63.40
15543;DHT22;7873;52.230;12.856;2023-07-29T09:31:06;24.60;63.20
15543;DHT22;7873;52.230;12.856;2023-07-29T09:33:44;24.60;63.10
15543;DHT22;7873;52.230;12.856;2023-07-29T09:36:11;24.60;62.80
15543;DHT22;7873;52.230;12.856;2023-07-29T09:38:38;24.60;63.10
15543;DHT22;7873;52.230;12.856;2023-07-29T09:41:06;24.40;63.50
15543;DHT22;7873;52.230;12.856;2023-07-29T09:43:34;24.60;63.00
15543;DHT22;7873;52.230;12.856;2023-07-29T09:46:01;24.60;63.70
15543;DHT22;7873;52.230;12.856;2023-07-29T09:48:32;24.50;64.30
15543;DHT22;7873;52.230;12.856;2023-07-29T09:50:59;24.50;64.10
15543;DHT22;7873;52.230;12.856;2023-07-29T09:53:26;24.50;63.90
15543;DHT22;7873;52.230;12.856;2023-07-29T09:55:52;24.70;62.70
15543;DHT22;7873;52.230;12.856;2023-07-29T09:58:26;24.70;62.50
15543;DHT22;7873;52.230;12.856;2023-07-29T10:00:53;24.80;62.30
15543;DHT22;7873;52.230;12.856;2023-07-29T10:03:21;24.80;61.80
15543;DHT22;7873;52.230;12.856;2023-07-29T10:05:48;24.80;62.00
15543;DHT22;7873;52.230;12.856;2023-07-29T10:08:14;24.70;62.70
15543;DHT22;7873;52.230;12.856;2023-07-29T10:10:41;24.80;61.70
15543;DHT22;7873;52.230;12.856;2023-07-29T10:13:08;24.90;61.40
15543;DHT22;7873;52.230;12.856;2023-07-29T10:15:37;24.80;61.70
15543;DHT22;7873;52.230;12.856;2023-07-29T10:18:03;24.80;61.50
15543;DHT22;7873;52.230;12.856;2023-07-29T10:20:31;24.80;61.70
15543;DHT22;7873;52.230;12.856;2023-07-29T10:22:59;24.80;62.60
15543;DHT22;7873;52.230;12.856;2023-07-29T10:25:30;24.70;62.70
15543;DHT22;7873;52.230;12.856;2023-07-29T10:28:04;24.50;65.60
15543;DHT22;7873;52.230;12.856;2023-07-29T10:30:32;24.50;65.00
15543;DHT22;7873;52.230;12.856;2023-07-29T10:33:01;24.50;65.80
15543;DHT22;7873;52.230;12.856;2023-07-29T10:35:29;24.50;66.00
15543;DHT22;7873;52.230;12.856;2023-07-29T10:37:56;24.40;66.70
15543;DHT22;7873;52.230;12.856;2023-07-29T10:40:23;24.50;66.40
15543;DHT22;7873;52.230;12.856;2023-07-29T10:42:59;24.80;65.10
15543;DHT22;7873;52.230;12.856;2023-07-29T10:45:35;24.90;64.20
15543;DHT22;7873;52.230;12.856;2023-07-29T10:48:06;24.90;63.50
15543;DHT22;7873;52.230;12.856;2023-07-29T10:50:36;24.70;64.40
15543;DHT22;7873;52.230;12.856;2023-07-29T10:53:03;24.60;64.40
15543;DHT22;7873;52.230;12.856;2023-07-29T10:55:31;24.50;64.50
15543;DHT22;7873;52.230;12.856;2023-07-29T10:58:06;24.40;64.70
15543;DHT22;7873;52.230;12.856;2023-07-29T11:00:38;24.50;64.30
15543;DHT22;7873;52.230;12.856;2023-07-29T11:03:08;24.40;64.30
15543;DHT22;7873;52.230;12.856;2023-07-29T11:05:43;24.40;63.90
15543;DHT22;7873;52.230;12.856;2023-07-29T11:08:15;24.40;63.60
15543;DHT22;7873;52.230;12.856;2023-07-29T11:10:57;24.40;63.90
15543;DHT22;7873;52.230;12.856;2023-07-29T11:13:25;24.40;64.00
15543;DHT22;7873;52.230;12.856;2023-07-29T11:15:53;24.30;63.60
15543;DHT22;7873;52.230;12.856;2023-07-29T11:18:22;24.40;63.10
15543;DHT22;7873;52.230;12.856;2023-07-29T11:20:53;24.40;62.80
15543;DHT22;7873;52.230;12.856;2023-07-29T11:23:20;24.30;62.90
15543;DHT22;7873;52.230;12.856;2023-07-29T11:25:53;24.30;63.20
15543;DHT22;7873;52.230;12.856;2023-07-29T11:28:20;24.30;62.60
15543;DHT22;7873;52.230;12.856;2023-07-29T11:30:49;24.30;62.90
15543;DHT22;7873;52.230;12.856;2023-07-29T11:33:17;24.30;62.40
15543;DHT22;7873;52.230;12.856;2023-07-29T11:35:45;24.30;62.40
15543;DHT22;7873;52.230;12.856;2023-07-29T11:38:14;24.30;62.50
15543;DHT22;7873;52.230;12.856;2023-07-29T11:40:41;24.30;62.40
15543;DHT22;7873;52.230;12.856;2023-07-29T11:43:08;24.20;62.30
15543;DHT22;7873;52.230;12.856;2023-07-29T11:45:35;24.30;62.30
15543;DHT22;7873;52.230;12.856;2023-07-29T11:48:01;24.20;62.00
15543;DHT22;7873;52.230;12.856;2023-07-29T11:50:28;24.20;62.10
15543;DHT22;7873;52.230;12.856;2023-07-29T11:52:56;24.20;62.10
15543;DHT22;7873;52.230;12.856;2023-07-29T11:55:24;24.20;62.10
15543;DHT22;7873;52.230;12.856;2023-07-29T11:57:51;24.20;62.20
15543;DHT22;7873;52.230;12.856;2023-07-29T12:00:18;24.20;62.20
15543;DHT22;7873;52.230;12.856;2023-07-29T12:02:46;24.20;62.00
15543;DHT22;7873;52.230;12.856;2023-07-29T12:05:15;24.20;62.00
15543;DHT22;7873;52.230;12.856;2023-07-29T12:07:44;24.20;61.80
15543;DHT22;7873;52.230;12.856;2023-07-29T12:10:12;24.20;62.00
15543;DHT22;7873;52.230;12.856;2023-07-29T12:12:46;24.20;61.50
15543;DHT22;7873;52.230;12.856;2023-07-29T12:15:13;24.30;61.50
15543;DHT22;7873;52.230;12.856;2023-07-29T12:17:52;24.30;61.60
15543;DHT22;7873;52.230;12.856;2023-07-29T12:20:20;24.20;61.40
15543;DHT22;7873;52.230;12.856;2023-07-29T12:22:51;24.30;61.40
15543;DHT22;7873;52.230;12.856;2023-07-29T12:25:19;24.30;61.50
15543;DHT22;7873;52.230;12.856;2023-07-29T12:27:47;24.30;61.40
15543;DHT22;7873;52.230;12.856;2023-07-29T12:30:13;24.30;61.50
15543;DHT22;7873;52.230;12.856;2023-07-29T12:32:44;24.30;61.70
15543;DHT22;7873;52.230;12.856;2023-07-29T12:35:11;24.30;63.00
15543;DHT22;7873;52.230;12.856;2023-07-29T12:37:38;24.30;63.70
15543;DHT22;7873;52.230;12.856;2023-07-29T12:40:08;24.30;63.10
15543;DHT22;7873;52.230;12.856;2023-07-29T12:42:48;24.30;62.60
15543;DHT22;7873;52.230;12.856;2023-07-29T12:45:16;24.30;62.30
15543;DHT22;7873;52.230;12.856;2023-07-29T12:47:43;24.40;61.80
15543;DHT22;7873;52.230;12.856;2023-07-29T12:50:09;24.40;61.70
15543;DHT22;7873;52.230;12.856;2023-07-29T12:52:36;24.30;61.80
15543;DHT22;7873;52.230;12.856;2023-07-29T12:55:03;24.50;61.30
15543;DHT22;7873;52.230;12.856;2023-07-29T12:57:32;24.60;61.80
15543;DHT22;7873;52.230;12.856;2023-07-29T12:59:58;24.70;61.00
15543;DHT22;7873;52.230;12.856;2023-07-29T13:02:25;24.80;61.00
15543;DHT22;7873;52.230;12.856;2023-07-29T13:04:52;24.70;62.10
15543;DHT22;7873;52.230;12.856;2023-07-29T13:07:18;24.80;62.30
15543;DHT22;7873;52.230;12.856;2023-07-29T13:09:45;24.80;62.70
15543;DHT22;7873;52.230;12.856;2023-07-29T13:12:12;24.80;61.90
15543;DHT22;7873;52.230;12.856;2023-07-29T13:14:40;24.80;62.90
15543;DHT22;7873;52.230;12.856;2023-07-29T13:17:07;24.70;63.50
15543;DHT22;7873;52.230;12.856;2023-07-29T13:19:37;24.70;63.20
15543;DHT22;7873;52.230;12.856;2023-07-29T13:22:07;24.80;64.00
15543;DHT22;7873;52.230;12.856;2023-07-29T13:24:34;24.80;64.10
15543;DHT22;7873;52.230;12.856;2023-07-29T13:27:08;24.80;63.50
15543;DHT22;7873;52.230;12.856;2023-07-29T13:29:41;24.70;63.90
15543;DHT22;7873;52.230;12.856;2023-07-29T13:32:09;24.70;64.50
15543;DHT22;7873;52.230;12.856;2023-07-29T13:34:36;24.80;64.50
15543;DHT22;7873;52.230;12.856;2023-07-29T13:37:05;24.80;64.80
15543;DHT22;7873;52.230;12.856;2023-07-29T13:39:34;24.70;65.50
15543;DHT22;7873;52.230;12.856;2023-07-29T13:42:02;24.70;65.80
15543;DHT22;7873;52.230;12.856;2023-07-29T13:44:30;24.60;66.10
15543;DHT22;7873;52.230;12.856;2023-07-29T13:47:01;24.70;65.60
15543;DHT22;7873;52.230;12.856;2023-07-29T13:49:32;24.80;65.40
15543;DHT22;7873;52.230;12.856;2023-07-29T13:52:02;24.70;65.60
15543;DHT22;7873;52.230;12.856;2023-07-29T13:54:29;24.80;65.10
15543;DHT22;7873;52.230;12.856;2023-07-29T13:56:55;24.80;64.90
15543;DHT22;7873;52.230;12.856;2023-07-29T13:59:22;24.80;64.80
15543;DHT22;7873;52.230;12.856;2023-07-29T14:01:49;24.80;65.10
15543;DHT22;7873;52.230;12.856;2023-07-29T14:04:17;24.80;64.70
15543;DHT22;7873;52.230;12.856;2023-07-29T14:06:43;24.90;64.50
15543;DHT22;7873;52.230;12.856;2023-07-29T14:09:10;24.80;64.70
15543;DHT22;7873;52.230;12.856;2023-07-29T14:11:37;24.80;65.10
15543;DHT22;7873;52.230;12.856;2023-07-29T14:14:04;24.90;64.50
15543;DHT22;7873;52.230;12.856;2023-07-29T14:16:31;24.90;64.80
15543;DHT22;7873;52.230;12.856;2023-07-29T14:18:57;24.80;64.40
15543;DHT22;7873;52.230;12.856;2023-07-29T14:21:25;24.90;64.20
15543;DHT22;7873;52.230;12.856;2023-07-29T14:23:52;25.00;64.30
15543;DHT22;7873;52.230;12.856;2023-07-29T14:26:19;24.90;63.90
15543;DHT22;7873;52.230;12.856;2023-07-29T14:28:46;25.10;64.60
15543;DHT22;7873;52.230;12.856;2023-07-29T14:31:12;25.00;64.90
15543;DHT22;7873;52.230;12.856;2023-07-29T14:33:39;25.00;63.60
15543;DHT22;7873;52.230;12.856;2023-07-29T14:36:06;25.00;63.90
15543;DHT22;7873;52.230;12.856;2023-07-29T14:38:34;25.00;63.40
15543;DHT22;7873;52.230;12.856;2023-07-29T14:41:01;25.10;63.50
15543;DHT22;7873;52.230;12.856;2023-07-29T14:43:28;25.10;63.20
15543;DHT22;7873;52.230;12.856;2023-07-29T14:45:58;25.20;63.20
15543;DHT22;7873;52.230;12.856;2023-07-29T14:48:25;25.10;63.30
15543;DHT22;7873;52.230;12.856;2023-07-29T14:50:52;25.10;63.40
15543;DHT22;7873;52.230;12.856;2023-07-29T14:53:18;25.20;63.40
15543;DHT22;7873;52.230;12.856;2023-07-29T14:55:46;25.10;63.60
15543;DHT22;7873;52.230;12.856;2023-07-29T14:58:13;25.20;64.00
15543;DHT22;7873;52.230;12.856;2023-07-29T15:00:41;25.20;64.00
15543;DHT22;7873;52.230;12.856;2023-07-29T15:03:07;25.30;64.30
15543;DHT22;7873;52.230;12.856;2023-07-29T15:05:34;25.20;62.50
15543;DHT22;7873;52.230;12.856;2023-07-29T15:08:01;25.20;63.00
15543;DHT22;7873;52.230;12.856;2023-07-29T15:10:28;25.10;62.80
15543;DHT22;7873;52.230;12.856;2023-07-29T15:12:56;25.00;63.40
15543;DHT22;7873;52.230;12.856;2023-07-29T15:15:22;24.90;63.90
15543;DHT22;7873;52.230;12.856;2023-07-29T15:17:49;24.80;63.40
15543;DHT22;7873;52.230;12.856;2023-07-29T15:20:16;24.70;63.50
15543;DHT22;7873;52.230;12.856;2023-07-29T15:22:43;24.80;62.90
15543;DHT22;7873;52.230;12.856;2023-07-29T15:25:09;25.10;63.30
15543;DHT22;7873;52.230;12.856;2023-07-29T15:27:37;25.20;62.80
15543;DHT22;7873;52.230;12.856;2023-07-29T15:30:06;25.20;61.40
15543;DHT22;7873;52.230;12.856;2023-07-29T15:32:33;25.30;62.80